sensor_id;sensor_type;location;lat;lon;timestamp;temperature;humidity
35240;DHT22;21376;50.954;4.716;2023-12-14T00:06:08;10.00;99.90
35240;DHT22;21376;50.954;4.716;2023-12-14T00:08:39;9.90;99.90
35240;DHT22;21376;50.954;4.716;2023-12-14T00:14:20;9.80;99.90
35240;DHT22;21376;50.954;4.716;2023-12-14T00:22:58;9.90;99.90
35240;DHT22;21376;50.954;4.716;2023-12-14T00:25:27;9.90;99.90
35240;DHT22;21376;50.954;4.716;2023-12-14T00:27:56;9.90;99.90
35240;DHT22;21376;50.954;4.716;2023-12-14T00:30:25;9.80;99.90
35240;DHT22;21376;50.954;4.716;2023-12-14T00:32:51;9.80;99.90
35240;DHT22;21376;50.954;4.716;2023-12-14T00:35:17;10.00;99.90
35240;DHT22;21376;50.954;4.716;2023-12-14T00:37:45;9.80;99.90
35240;DHT22;21376;50.954;4.716;2023-12-14T00:40:11;9.90;99.90
35240;DHT22;21376;50.954;4.716;2023-12-14T00:42:37;9.90;99.90
35240;DHT22;21376;50.954;4.716;2023-12-14T00:45:26;9.80;99.90
35240;DHT22;21376;50.954;4.716;2023-12-14T00:47:52;9.70;99.90
35240;DHT22;21376;50.954;4.716;2023-12-14T00:50:18;9.70;99.90
35240;DHT22;21376;50.954;4.716;2023-12-14T00:52:47;9.80;99.90
35240;DHT22;21376;50.954;4.716;2023-12-14T00:55:19;9.90;99.90
35240;DHT22;21376;50.954;4.716;2023-12-14T00:57:48;9.80;99.90
35240;DHT22;21376;50.954;4.716;2023-12-14T01:00:17;10.00;99.90
35240;DHT22;21376;50.954;4.716;2023-12-14T01:02:45;9.90;99.90
35240;DHT22;21376;50.954;4.716;2023-12-14T01:05:14;9.90;99.90
35240;DHT22;21376;50.954;4.716;2023-12-14T01:08:05;9.90;99.90
35240;DHT22;21376;50.954;4.716;2023-12-14T01:14:21;9.70;99.90
35240;DHT22;21376;50.954;4.716;2023-12-14T01:16:49;9.60;99.90
35240;DHT22;21376;50.954;4.716;2023-12-14T01:19:18;9.60;99.90
35240;DHT22;21376;50.954;4.716;2023-12-14T01:21:47;9.50;99.90
35240;DHT22;21376;50.954;4.716;2023-12-14T01:24:16;9.60;99.90
35240;DHT22;21376;50.954;4.716;2023-12-14T01:26:42;9.50;99.90
35240;DHT22;21376;50.954;4.716;2023-12-14T01:29:22;9.60;99.90
35240;DHT22;21376;50.954;4.716;2023-12-14T01:31:51;9.60;99.90
35240;DHT22;21376;50.954;4.716;2023-12-14T01:34:22;9.50;99.90
35240;DHT22;21376;50.954;4.716;2023-12-14T01:36:51;9.30;99.90
35240;DHT22;21376;50.954;4.716;2023-12-14T01:39:20;9.10;99.90
35240;DHT22;21376;50.954;4.716;2023-12-14T01:41:49;9.10;99.90
35240;DHT22;21376;50.954;4.716;2023-12-14T01:44:18;9.10;99.90
35240;DHT22;21376;50.954;4.716;2023-12-14T01:46:50;9.10;99.90
35240;DHT22;21376;50.954;4.716;2023-12-14T01:49:18;9.10;99.90
35240;DHT22;21376;50.954;4.716;2023-12-14T01:55:13;9.00;99.90
35240;DHT22;21376;50.954;4.716;2023-12-14T01:57:42;9.00;99.90
35240;DHT22;21376;50.954;4.716;2023-12-14T02:00:22;8.90;99.90
35240;DHT22;21376;50.954;4.716;2023-12-14T02:02:52;8.80;99.90
35240;DHT22;21376;50.954;4.716;2023-12-14T02:05:21;8.60;99.90
35240;DHT22;21376;50.954;4.716;2023-12-14T02:07:50;8.40;99.90
35240;DHT22;21376;50.954;4.716;2023-12-14T02:10:20;8.50;99.90
35240;DHT22;21376;50.954;4.716;2023-12-14T02:12:48;8.50;99.90
35240;DHT22;21376;50.954;4.716;2023-12-14T02:15:17;8.60;99.90
35240;DHT22;21376;50.954;4.716;2023-12-14T02:17:46;8.60;99.90
35240;DHT22;21376;50.954;4.716;2023-12-14T02:20:15;8.40;99.90
35240;DHT22;21376;50.954;4.716;2023-12-14T02:22:54;8.50;99.90
35240;DHT22;21376;50.954;4.716;2023-12-14T02:25:24;8.50;99.90
35240;DHT22;21376;50.954;4.716;2023-12-14T02:27:50;8.40;99.90
35240;DHT22;21376;50.954;4.716;2023-12-14T02:59:37;8.10;99.90
35240;DHT22;21376;50.954;4.716;2023-12-14T03:02:11;8.00;99.90
35240;DHT22;21376;50.954;4.716;2023-12-14T03:04:43;8.10;99.90
35240;DHT22;21376;50.954;4.716;2023-12-14T03:07:22;8.10;99.90
35240;DHT22;21376;50.954;4.716;2023-12-14T03:09:51;8.10;99.90
35240;DHT22;21376;50.954;4.716;2023-12-14T03:12:18;8.30;99.90
35240;DHT22;21376;50.954;4.716;2023-12-14T03:14:47;8.30;99.90
35240;DHT22;21376;50.954;4.716;2023-12-14T03:17:15;8.30;99.90
35240;DHT22;21376;50.954;4.716;2023-12-14T03:19:45;8.30;99.90
35240;DHT22;21376;50.954;4.716;2023-12-14T03:22:13;8.30;99.90
35240;DHT22;21376;50.954;4.716;2023-12-14T03:24:47;8.30;99.90
35240;DHT22;21376;50.954;4.716;2023-12-14T03:27:16;8.20;99.90
35240;DHT22;21376;50.954;4.716;2023-12-14T03:29:45;8.10;99.90
35240;DHT22;21376;50.954;4.716;2023-12-14T03:32:14;8.20;99.90
35240;DHT22;21376;50.954;4.716;2023-12-14T03:34:40;8.20;99.90
35240;DHT22;21376;50.954;4.716;2023-12-14T03:37:09;8.20;99.90
35240;DHT22;21376;50.954;4.716;2023-12-14T03:39:38;8.10;99.90
35240;DHT22;21376;50.954;4.716;2023-12-14T03:42:10;7.90;99.90
35240;DHT22;21376;50.954;4.716;2023-12-14T03:44:36;7.90;99.90
35240;DHT22;21376;50.954;4.716;2023-12-14T03:47:07;8.00;99.90
35240;DHT22;21376;50.954;4.716;2023-12-14T03:49:39;8.10;99.90
35240;DHT22;21376;50.954;4.716;2023-12-14T05:31:17;7.40;99.90
35240;DHT22;21376;50.954;4.716;2023-12-14T05:33:46;7.30;99.90
35240;DHT22;21376;50.954;4.716;2023-12-14T05:36:15;7.40;99.90
35240;DHT22;21376;50.954;4.716;2023-12-14T05:38:44;7.40;99.90
35240;DHT22;21376;50.954;4.716;2023-12-14T05:41:13;7.50;99.90
35240;DHT22;21376;50.954;4.716;2023-12-14T05:43:42;7.50;99.90
35240;DHT22;21376;50.954;4.716;2023-12-14T05:46:08;7.40;99.90
35240;DHT22;21376;50.954;4.716;2023-12-14T05:48:37;7.40;99.90
35240;DHT22;21376;50.954;4.716;2023-12-14T05:51:06;7.50;99.90
35240;DHT22;21376;50.954;4.716;2023-12-14T05:53:35;7.50;99.90
35240;DHT22;21376;50.954;4.716;2023-12-14T05:56:08;7.60;99.90
35240;DHT22;21376;50.954;4.716;2023-12-14T05:58:34;7.40;99.90
35240;DHT22;21376;50.954;4.716;2023-12-14T06:01:00;7.40;99.90
35240;DHT22;21376;50.954;4.716;2023-12-14T06:03:27;7.40;99.90
35240;DHT22;21376;50.954;4.716;2023-12-14T06:06:15;7.30;99.90
35240;DHT22;21376;50.954;4.716;2023-12-14T06:09:14;7.50;99.90
35240;DHT22;21376;50.954;4.716;2023-12-14T06:12:02;7.40;99.90
35240;DHT22;21376;50.954;4.716;2023-12-14T06:14:35;7.50;99.90
35240;DHT22;21376;50.954;4.716;2023-12-14T06:17:11;7.40;99.90
35240;DHT22;21376;50.954;4.716;2023-12-14T06:19:42;7.40;99.90
35240;DHT22;21376;50.954;4.716;2023-12-14T06:22:25;7.30;99.90
35240;DHT22;21376;50.954;4.716;2023-12-14T06:24:57;7.40;99.90
35240;DHT22;21376;50.954;4.716;2023-12-14T06:27:53;7.30;99.90
35240;DHT22;21376;50.954;4.716;2023-12-14T06:30:26;7.50;99.90
35240;DHT22;21376;50.954;4.716;2023-12-14T06:33:20;7.50;99.90
35240;DHT22;21376;50.954;4.716;2023-12-14T06:39:10;7.70;99.90
35240;DHT22;21376;50.954;4.716;2023-12-14T06:41:42;7.40;99.90
35240;DHT22;21376;50.954;4.716;2023-12-14T06:44:31;7.40;99.90
35240;DHT22;21376;50.954;4.716;2023-12-14T06:47:03;7.40;99.90
35240;DHT22;21376;50.954;4.716;2023-12-14T06:49:34;7.50;99.90
35240;DHT22;21376;50.954;4.716;2023-12-14T06:52:03;7.50;99.90
35240;DHT22;21376;50.954;4.716;2023-12-14T06:54:32;7.50;99.90
35240;DHT22;21376;50.954;4.716;2023-12-14T06:57:02;7.70;99.90
35240;DHT22;21376;50.954;4.716;2023-12-14T06:59:33;7.70;99.90
35240;DHT22;21376;50.954;4.716;2023-12-14T07:02:23;7.80;99.90
35240;DHT22;21376;50.954;4.716;2023-12-14T07:05:01;7.80;99.90
35240;DHT22;21376;50.954;4.716;2023-12-14T07:07:45;7.70;99.90
35240;DHT22;21376;50.954;4.716;2023-12-14T07:10:14;7.70;99.90
35240;DHT22;21376;50.954;4.716;2023-12-14T07:12:43;7.60;99.90
35240;DHT22;21376;50.954;4.716;2023-12-14T07:18:16;7.40;99.90
35240;DHT22;21376;50.954;4.716;2023-12-14T07:20:45;7.30;99.90
35240;DHT22;21376;50.954;4.716;2023-12-14T07:23:11;7.30;99.90
35240;DHT22;21376;50.954;4.716;2023-12-14T07:25:39;7.30;99.90
35240;DHT22;21376;50.954;4.716;2023-12-14T07:28:09;7.30;99.90
35240;DHT22;21376;50.954;4.716;2023-12-14T07:30:37;7.30;99.90
35240;DHT22;21376;50.954;4.716;2023-12-14T07:33:06;7.30;99.90
35240;DHT22;21376;50.954;4.716;2023-12-14T07:35:35;7.50;99.90
35240;DHT22;21376;50.954;4.716;2023-12-14T07:38:04;7.50;99.90
35240;DHT22;21376;50.954;4.716;2023-12-14T07:40:33;7.30;99.90
35240;DHT22;21376;50.954;4.716;2023-12-14T07:43:05;7.30;99.90
35240;DHT22;21376;50.954;4.716;2023-12-14T07:45:34;6.80;99.90
35240;DHT22;21376;50.954;4.716;2023-12-14T07:48:05;6.80;99.90
35240;DHT22;21376;50.954;4.716;2023-12-14T07:50:37;6.70;99.90
35240;DHT22;21376;50.954;4.716;2023-12-14T07:53:06;6.60;99.90
35240;DHT22;21376;50.954;4.716;2023-12-14T07:55:35;6.40;99.90
35240;DHT22;21376;50.954;4.716;2023-12-14T07:58:04;6.40;99.90
35240;DHT22;21376;50.954;4.716;2023-12-14T08:00:42;6.40;99.90
35240;DHT22;21376;50.954;4.716;2023-12-14T08:03:11;6.20;99.90
35240;DHT22;21376;50.954;4.716;2023-12-14T08:05:37;6.20;99.90
35240;DHT22;21376;50.954;4.716;2023-12-14T08:08:06;6.10;99.90
35240;DHT22;21376;50.954;4.716;2023-12-14T08:10:34;6.10;99.90
35240;DHT22;21376;50.954;4.716;2023-12-14T08:13:02;6.10;99.90
35240;DHT22;21376;50.954;4.716;2023-12-14T08:15:31;6.00;99.90
35240;DHT22;21376;50.954;4.716;2023-12-14T08:17:58;6.10;99.90
35240;DHT22;21376;50.954;4.716;2023-12-14T08:20:27;6.20;99.90
35240;DHT22;21376;50.954;4.716;2023-12-14T08:22:55;6.30;99.90
35240;DHT22;21376;50.954;4.716;2023-12-14T08:25:24;6.40;99.90
35240;DHT22;21376;50.954;4.716;2023-12-14T08:27:54;6.50;99.90
35240;DHT22;21376;50.954;4.716;2023-12-14T08:30:23;6.60;99.90
35240;DHT22;21376;50.954;4.716;2023-12-14T08:32:49;6.70;99.90
35240;DHT22;21376;50.954;4.716;2023-12-14T08:35:18;6.70;99.90
35240;DHT22;21376;50.954;4.716;2023-12-14T08:37:47;6.80;99.90
35240;DHT22;21376;50.954;4.716;2023-12-14T08:40:16;6.80;99.90
35240;DHT22;21376;50.954;4.716;2023-12-14T08:42:47;6.80;99.90
35240;DHT22;21376;50.954;4.716;2023-12-14T08:45:23;6.80;99.90
35240;DHT22;21376;50.954;4.716;2023-12-14T08:47:52;6.80;99.90
35240;DHT22;21376;50.954;4.716;2023-12-14T08:50:20;6.90;99.90
35240;DHT22;21376;50.954;4.716;2023-12-14T08:59:23;6.90;99.90
35240;DHT22;21376;50.954;4.716;2023-12-14T09:01:49;6.90;99.90
35240;DHT22;21376;50.954;4.716;2023-12-14T09:04:21;6.80;99.90
35240;DHT22;21376;50.954;4.716;2023-12-14T09:07:08;6.70;99.90
35240;DHT22;21376;50.954;4.716;2023-12-14T09:09:45;7.10;99.90
35240;DHT22;21376;50.954;4.716;2023-12-14T09:12:14;8.40;99.90
35240;DHT22;21376;50.954;4.716;2023-12-14T09:15:00;9.60;99.90
35240;DHT22;21376;50.954;4.716;2023-12-14T09:17:29;11.20;99.90
35240;DHT22;21376;50.954;4.716;2023-12-14T09:20:04;12.10;99.90
35240;DHT22;21376;50.954;4.716;2023-12-14T09:22:33;12.90;99.90
35240;DHT22;21376;50.954;4.716;2023-12-14T09:25:02;13.40;99.90
35240;DHT22;21376;50.954;4.716;2023-12-14T09:27:31;14.50;99.90
35240;DHT22;21376;50.954;4.716;2023-12-14T09:30:02;14.80;99.90
35240;DHT22;21376;50.954;4.716;2023-12-14T09:35:51;14.70;99.90
35240;DHT22;21376;50.954;4.716;2023-12-14T09:38:35;15.70;99.90
35240;DHT22;21376;50.954;4.716;2023-12-14T09:41:04;15.70;99.90
35240;DHT22;21376;50.954;4.716;2023-12-14T09:43:35;15.40;99.90
35240;DHT22;21376;50.954;4.716;2023-12-14T09:46:04;15.20;99.90
35240;DHT22;21376;50.954;4.716;2023-12-14T09:55:17;17.60;99.90
35240;DHT22;21376;50.954;4.716;2023-12-14T09:57:46;17.40;99.90
35240;DHT22;21376;50.954;4.716;2023-12-14T10:07:13;18.00;99.90
35240;DHT22;21376;50.954;4.716;2023-12-14T10:17:57;17.40;99.90
35240;DHT22;21376;50.954;4.716;2023-12-14T10:20:23;16.60;99.90
35240;DHT22;21376;50.954;4.716;2023-12-14T10:22:53;16.20;99.90
35240;DHT22;21376;50.954;4.716;2023-12-14T10:25:20;15.70;99.90
35240;DHT22;21376;50.954;4.716;2023-12-14T10:27:47;15.30;99.90
35240;DHT22;21376;50.954;4.716;2023-12-14T10:30:14;14.50;99.90
35240;DHT22;21376;50.954;4.716;2023-12-14T10:32:44;14.00;99.90
35240;DHT22;21376;50.954;4.716;2023-12-14T10:35:13;13.90;99.90
35240;DHT22;21376;50.954;4.716;2023-12-14T10:37:43;14.10;99.90
35240;DHT22;21376;50.954;4.716;2023-12-14T10:40:14;14.20;99.90
35240;DHT22;21376;50.954;4.716;2023-12-14T10:42:44;13.80;99.90
35240;DHT22;21376;50.954;4.716;2023-12-14T10:45:16;13.30;99.90
35240;DHT22;21376;50.954;4.716;2023-12-14T10:47:47;13.00;99.90
35240;DHT22;21376;50.954;4.716;2023-12-14T10:50:16;12.90;99.90
35240;DHT22;21376;50.954;4.716;2023-12-14T10:52:44;12.50;99.90
35240;DHT22;21376;50.954;4.716;2023-12-14T10:55:25;12.10;99.90
35240;DHT22;21376;50.954;4.716;2023-12-14T10:57:52;11.70;99.90
35240;DHT22;21376;50.954;4.716;2023-12-14T11:00:22;11.50;99.90
35240;DHT22;21376;50.954;4.716;2023-12-14T11:06:36;11.20;99.90
35240;DHT22;21376;50.954;4.716;2023-12-14T11:09:06;11.20;99.90
35240;DHT22;21376;50.954;4.716;2023-12-14T11:14:12;10.80;99.90
35240;DHT22;21376;50.954;4.716;2023-12-14T11:16:43;10.80;99.90
35240;DHT22;21376;50.954;4.716;2023-12-14T11:19:29;10.80;99.90
35240;DHT22;21376;50.954;4.716;2023-12-14T11:24:36;10.70;99.90
35240;DHT22;21376;50.954;4.716;2023-12-14T11:27:06;10.60;99.90
35240;DHT22;21376;50.954;4.716;2023-12-14T11:29:38;10.50;99.90
35240;DHT22;21376;50.954;4.716;2023-12-14T11:32:09;10.70;99.90
35240;DHT22;21376;50.954;4.716;2023-12-14T11:41:18;10.60;99.90
35240;DHT22;21376;50.954;4.716;2023-12-14T11:43:48;10.80;99.90
35240;DHT22;21376;50.954;4.716;2023-12-14T11:46:14;10.80;99.90
35240;DHT22;21376;50.954;4.716;2023-12-14T11:48:45;10.90;99.90
35240;DHT22;21376;50.954;4.716;2023-12-14T11:51:15;10.90;99.90
35240;DHT22;21376;50.954;4.716;2023-12-14T11:54:00;10.90;99.90
35240;DHT22;21376;50.954;4.716;2023-12-14T11:56:28;10.80;99.90
35240;DHT22;21376;50.954;4.716;2023-12-14T11:58:58;10.90;99.90
35240;DHT22;21376;50.954;4.716;2023-12-14T12:01:27;11.00;99.90
35240;DHT22;21376;50.954;4.716;2023-12-14T12:03:56;10.60;99.90
35240;DHT22;21376;50.954;4.716;2023-12-14T12:06:34;10.50;99.90
35240;DHT22;21376;50.954;4.716;2023-12-14T12:09:03;10.60;99.90
35240;DHT22;21376;50.954;4.716;2023-12-14T12:11:36;10.80;99.90
35240;DHT22;21376;50.954;4.716;2023-12-14T12:14:10;10.80;99.90
35240;DHT22;21376;50.954;4.716;2023-12-14T12:16:39;10.90;99.90
35240;DHT22;21376;50.954;4.716;2023-12-14T12:19:08;10.40;99.90
35240;DHT22;21376;50.954;4.716;2023-12-14T12:21:37;10.40;99.90
35240;DHT22;21376;50.954;4.716;2023-12-14T12:24:06;10.60;99.90
35240;DHT22;21376;50.954;4.716;2023-12-14T12:26:35;10.30;99.90
35240;DHT22;21376;50.954;4.716;2023-12-14T12:29:03;10.20;99.90
35240;DHT22;21376;50.954;4.716;2023-12-14T12:31:34;10.20;99.90
35240;DHT22;21376;50.954;4.716;2023-12-14T12:34:04;10.30;99.90
35240;DHT22;21376;50.954;4.716;2023-12-14T12:36:35;10.10;99.90
35240;DHT22;21376;50.954;4.716;2023-12-14T12:39:08;9.80;99.90
35240;DHT22;21376;50.954;4.716;2023-12-14T12:42:07;9.80;99.90
35240;DHT22;21376;50.954;4.716;2023-12-14T12:44:33;9.70;99.90
35240;DHT22;21376;50.954;4.716;2023-12-14T12:56:21;9.70;99.90
35240;DHT22;21376;50.954;4.716;2023-12-14T12:58:50;9.60;99.90
35240;DHT22;21376;50.954;4.716;2023-12-14T13:01:37;9.40;99.90
35240;DHT22;21376;50.954;4.716;2023-12-14T13:04:21;9.40;99.90
35240;DHT22;21376;50.954;4.716;2023-12-14T13:06:53;9.40;99.90
35240;DHT22;21376;50.954;4.716;2023-12-14T13:09:21;9.40;99.90
35240;DHT22;21376;50.954;4.716;2023-12-14T13:11:51;9.40;99.90
35240;DHT22;21376;50.954;4.716;2023-12-14T13:14:20;9.10;99.90
35240;DHT22;21376;50.954;4.716;2023-12-14T13:16:49;9.10;99.90
35240;DHT22;21376;50.954;4.716;2023-12-14T13:19:35;9.10;99.90
35240;DHT22;21376;50.954;4.716;2023-12-14T13:22:04;9.10;99.90
35240;DHT22;21376;50.954;4.716;2023-12-14T13:24:33;9.10;99.90
35240;DHT22;21376;50.954;4.716;2023-12-14T13:27:02;9.00;99.90
35240;DHT22;21376;50.954;4.716;2023-12-14T13:29:32;8.60;99.90
35240;DHT22;21376;50.954;4.716;2023-12-14T13:35:53;8.40;99.90
35240;DHT22;21376;50.954;4.716;2023-12-14T13:38:22;8.40;99.90
35240;DHT22;21376;50.954;4.716;2023-12-14T13:40:51;8.40;99.90
35240;DHT22;21376;50.954;4.716;2023-12-14T13:43:29;8.60;99.90
35240;DHT22;21376;50.954;4.716;2023-12-14T13:45:55;8.60;99.90
35240;DHT22;21376;50.954;4.716;2023-12-14T13:48:28;8.60;99.90
35240;DHT22;21376;50.954;4.716;2023-12-14T13:50:54;8.70;99.90
35240;DHT22;21376;50.954;4.716;2023-12-14T13:53:24;8.80;99.90
35240;DHT22;21376;50.954;4.716;2023-12-14T14:04:25;8.90;99.90
35240;DHT22;21376;50.954;4.716;2023-12-14T14:06:54;8.60;99.90
35240;DHT22;21376;50.954;4.716;2023-12-14T14:09:23;8.70;99.90
35240;DHT22;21376;50.954;4.716;2023-12-14T14:11:50;8.80;99.90
35240;DHT22;21376;50.954;4.716;2023-12-14T14:14:19;9.00;99.90
35240;DHT22;21376;50.954;4.716;2023-12-14T14:16:48;9.10;99.90
35240;DHT22;21376;50.954;4.716;2023-12-14T14:19:17;9.10;99.90
35240;DHT22;21376;50.954;4.716;2023-12-14T14:25:06;9.20;99.90
35240;DHT22;21376;50.954;4.716;2023-12-14T14:27:35;9.30;99.90
35240;DHT22;21376;50.954;4.716;2023-12-14T14:30:05;9.40;99.90
35240;DHT22;21376;50.954;4.716;2023-12-14T14:32:34;9.50;99.90
35240;DHT22;21376;50.954;4.716;2023-12-14T14:35:06;9.40;99.90
35240;DHT22;21376;50.954;4.716;2023-12-14T14:37:33;9.50;99.90
35240;DHT22;21376;50.954;4.716;2023-12-14T14:40:03;9.40;99.90
35240;DHT22;21376;50.954;4.716;2023-12-14T14:42:56;9.40;99.90
35240;DHT22;21376;50.954;4.716;2023-12-14T14:45:44;9.40;99.90
35240;DHT22;21376;50.954;4.716;2023-12-14T14:48:13;9.30;99.90
35240;DHT22;21376;50.954;4.716;2023-12-14T14:50:42;9.20;99.90
35240;DHT22;21376;50.954;4.716;2023-12-14T14:53:25;9.20;99.90
35240;DHT22;21376;50.954;4.716;2023-12-14T14:55:54;9.20;99.90
35240;DHT22;21376;50.954;4.716;2023-12-14T14:58:24;9.20;99.90
35240;DHT22;21376;50.954;4.716;2023-12-14T15:00:49;9.10;99.90
35240;DHT22;21376;50.954;4.716;2023-12-14T15:03:18;8.90;99.90
35240;DHT22;21376;50.954;4.716;2023-12-14T15:05:49;8.80;99.90
35240;DHT22;21376;50.954;4.716;2023-12-14T15:08:17;8.70;99.90
35240;DHT22;21376;50.954;4.716;2023-12-14T15:10:59;8.90;99.90
35240;DHT22;21376;50.954;4.716;2023-12-14T15:13:24;8.90;99.90
35240;DHT22;21376;50.954;4.716;2023-12-14T15:15:55;9.00;99.90
35240;DHT22;21376;50.954;4.716;2023-12-14T15:18:24;9.00;99.90
35240;DHT22;21376;50.954;4.716;2023-12-14T15:20:50;8.90;99.90
35240;DHT22;21376;50.954;4.716;2023-12-14T15:23:18;8.90;99.90
35240;DHT22;21376;50.954;4.716;2023-12-14T15:26:06;8.90;99.90
35240;DHT22;21376;50.954;4.716;2023-12-14T16:33:55;8.00;99.90
35240;DHT22;21376;50.954;4.716;2023-12-14T16:36:24;8.00;99.90
35240;DHT22;21376;50.954;4.716;2023-12-14T16:39:08;8.00;99.90
35240;DHT22;21376;50.954;4.716;2023-12-14T16:41:40;8.10;99.90
35240;DHT22;21376;50.954;4.716;2023-12-14T16:44:12;8.10;99.90
35240;DHT22;21376;50.954;4.716;2023-12-14T16:46:41;8.10;99.90
35240;DHT22;21376;50.954;4.716;2023-12-14T16:49:09;8.10;99.90
35240;DHT22;21376;50.954;4.716;2023-12-14T16:54:30;8.10;99.90
35240;DHT22;21376;50.954;4.716;2023-12-14T17:04:01;8.00;99.90
35240;DHT22;21376;50.954;4.716;2023-12-14T17:06:29;8.00;99.90
35240;DHT22;21376;50.954;4.716;2023-12-14T17:08:58;8.00;99.90
35240;DHT22;21376;50.954;4.716;2023-12-14T17:11:50;8.00;99.90
35240;DHT22;21376;50.954;4.716;2023-12-14T17:14:19;8.10;99.90
35240;DHT22;21376;50.954;4.716;2023-12-14T17:16:46;8.00;99.90
35240;DHT22;21376;50.954;4.716;2023-12-14T17:19:15;8.00;99.90
35240;DHT22;21376;50.954;4.716;2023-12-14T17:21:44;8.00;99.90
35240;DHT22;21376;50.954;4.716;2023-12-14T17:24:21;8.10;99.90
35240;DHT22;21376;50.954;4.716;2023-12-14T17:27:00;8.10;99.90
35240;DHT22;21376;50.954;4.716;2023-12-14T17:30:02;8.00;99.90
35240;DHT22;21376;50.954;4.716;2023-12-14T17:37:18;7.80;99.90
35240;DHT22;21376;50.954;4.716;2023-12-14T17:39:46;7.90;99.90
35240;DHT22;21376;50.954;4.716;2023-12-14T17:45:14;7.90;99.90
35240;DHT22;21376;50.954;4.716;2023-12-14T17:47:42;7.90;99.90
35240;DHT22;21376;50.954;4.716;2023-12-14T17:50:12;7.80;99.90
35240;DHT22;21376;50.954;4.716;2023-12-14T17:52:40;7.70;99.90
35240;DHT22;21376;50.954;4.716;2023-12-14T17:55:08;7.80;99.90
35240;DHT22;21376;50.954;4.716;2023-12-14T17:57:49;7.70;99.90
35240;DHT22;21376;50.954;4.716;2023-12-14T18:00:15;7.60;99.90
35240;DHT22;21376;50.954;4.716;2023-12-14T18:02:42;7.60;99.90
35240;DHT22;21376;50.954;4.716;2023-12-14T18:05:45;7.70;99.90
35240;DHT22;21376;50.954;4.716;2023-12-14T18:08:14;7.80;99.90
35240;DHT22;21376;50.954;4.716;2023-12-14T18:10:43;7.70;99.90
35240;DHT22;21376;50.954;4.716;2023-12-14T18:13:24;7.70;99.90
35240;DHT22;21376;50.954;4.716;2023-12-14T18:15:54;7.80;99.90
35240;DHT22;21376;50.954;4.716;2023-12-14T18:21:27;7.80;99.90
35240;DHT22;21376;50.954;4.716;2023-12-14T18:23:56;7.80;99.90
35240;DHT22;21376;50.954;4.716;2023-12-14T18:26:28;7.80;99.90
35240;DHT22;21376;50.954;4.716;2023-12-14T18:28:57;7.80;99.90
35240;DHT22;21376;50.954;4.716;2023-12-14T18:31:31;7.80;99.90
35240;DHT22;21376;50.954;4.716;2023-12-14T18:34:01;7.90;99.90
35240;DHT22;21376;50.954;4.716;2023-12-14T18:36:27;7.80;99.90
35240;DHT22;21376;50.954;4.716;2023-12-14T18:38:55;7.70;99.90
35240;DHT22;21376;50.954;4.716;2023-12-14T18:41:20;7.70;99.90
35240;DHT22;21376;50.954;4.716;2023-12-14T18:44:00;7.70;99.90
35240;DHT22;21376;50.954;4.716;2023-12-14T18:46:29;7.70;99.90
35240;DHT22;21376;50.954;4.716;2023-12-14T18:48:55;7.60;99.90
35240;DHT22;21376;50.954;4.716;2023-12-14T18:51:24;7.70;99.90
35240;DHT22;21376;50.954;4.716;2023-12-14T18:53:53;7.60;99.90
35240;DHT22;21376;50.954;4.716;2023-12-14T18:56:19;7.60;99.90
35240;DHT22;21376;50.954;4.716;2023-12-14T19:02:10;7.40;99.90
35240;DHT22;21376;50.954;4.716;2023-12-14T19:04:40;7.40;99.90
35240;DHT22;21376;50.954;4.716;2023-12-14T19:07:13;7.40;99.90
35240;DHT22;21376;50.954;4.716;2023-12-14T19:16:32;7.60;99.90
35240;DHT22;21376;50.954;4.716;2023-12-14T19:19:26;7.70;99.90
35240;DHT22;21376;50.954;4.716;2023-12-14T19:21:58;7.80;99.90
35240;DHT22;21376;50.954;4.716;2023-12-14T19:24:24;7.80;99.90
35240;DHT22;21376;50.954;4.716;2023-12-14T19:26:52;7.70;99.90
35240;DHT22;21376;50.954;4.716;2023-12-14T19:29:19;7.50;99.90
35240;DHT22;21376;50.954;4.716;2023-12-14T19:31:44;7.50;99.90
35240;DHT22;21376;50.954;4.716;2023-12-14T19:34:10;7.60;99.90
35240;DHT22;21376;50.954;4.716;2023-12-14T19:36:36;7.70;99.90
35240;DHT22;21376;50.954;4.716;2023-12-14T19:39:02;7.70;99.90
35240;DHT22;21376;50.954;4.716;2023-12-14T19:41:32;7.80;99.90
35240;DHT22;21376;50.954;4.716;2023-12-14T19:44:17;7.90;99.90
35240;DHT22;21376;50.954;4.716;2023-12-14T19:46:47;7.60;99.90
35240;DHT22;21376;50.954;4.716;2023-12-14T19:55:45;7.40;99.90
35240;DHT22;21376;50.954;4.716;2023-12-14T19:58:13;7.40;99.90
35240;DHT22;21376;50.954;4.716;2023-12-14T20:00:51;7.50;99.90
35240;DHT22;21376;50.954;4.716;2023-12-14T20:03:20;7.40;99.90
35240;DHT22;21376;50.954;4.716;2023-12-14T20:05:49;7.30;99.90
35240;DHT22;21376;50.954;4.716;2023-12-14T20:08:16;7.40;99.90
35240;DHT22;21376;50.954;4.716;2023-12-14T20:10:48;7.50;99.90
35240;DHT22;21376;50.954;4.716;2023-12-14T20:13:17;7.30;99.90
35240;DHT22;21376;50.954;4.716;2023-12-14T20:15:45;7.40;99.90
35240;DHT22;21376;50.954;4.716;2023-12-14T20:26:37;7.40;99.90
35240;DHT22;21376;50.954;4.716;2023-12-14T20:29:06;7.50;99.90
35240;DHT22;21376;50.954;4.716;2023-12-14T20:31:35;7.80;99.90
35240;DHT22;21376;50.954;4.716;2023-12-14T20:34:37;7.70;99.90
35240;DHT22;21376;50.954;4.716;2023-12-14T20:37:06;7.60;99.90
35240;DHT22;21376;50.954;4.716;2023-12-14T20:39:35;7.60;99.90
35240;DHT22;21376;50.954;4.716;2023-12-14T20:42:04;7.60;99.90
35240;DHT22;21376;50.954;4.716;2023-12-14T20:44:33;7.70;99.90
35240;DHT22;21376;50.954;4.716;2023-12-14T20:47:02;7.60;99.90
35240;DHT22;21376;50.954;4.716;2023-12-14T20:49:30;7.60;99.90
35240;DHT22;21376;50.954;4.716;2023-12-14T20:52:19;7.70;99.90
35240;DHT22;21376;50.954;4.716;2023-12-14T20:54:51;7.40;99.90
35240;DHT22;21376;50.954;4.716;2023-12-14T20:57:20;7.40;99.90
35240;DHT22;21376;50.954;4.716;2023-12-14T20:59:49;7.50;99.90
35240;DHT22;21376;50.954;4.716;2023-12-14T22:53:52;6.90;99.90
35240;DHT22;21376;50.954;4.716;2023-12-14T22:56:25;7.10;99.90
35240;DHT22;21376;50.954;4.716;2023-12-14T22:58:53;7.20;99.90
35240;DHT22;21376;50.954;4.716;2023-12-14T23:01:29;7.20;99.90
35240;DHT22;21376;50.954;4.716;2023-12-14T23:03:59;7.20;99.90
35240;DHT22;21376;50.954;4.716;2023-12-14T23:06:25;7.10;99.90
35240;DHT22;21376;50.954;4.716;2023-12-14T23:09:10;7.00;99.90
35240;DHT22;21376;50.954;4.716;2023-12-14T23:14:50;7.10;99.90
35240;DHT22;21376;50.954;4.716;2023-12-14T23:17:18;7.30;99.90
35240;DHT22;21376;50.954;4.716;2023-12-14T23:19:47;7.30;99.90
35240;DHT22;21376;50.954;4.716;2023-12-14T23:22:29;7.40;99.90
35240;DHT22;21376;50.954;4.716;2023-12-14T23:24:58;7.20;99.90
35240;DHT22;21376;50.954;4.716;2023-12-14T23:27:27;7.10;99.90
35240;DHT22;21376;50.954;4.716;2023-12-14T23:29:53;7.00;99.90
35240;DHT22;21376;50.954;4.716;2023-12-14T23:32:22;6.90;99.90
35240;DHT22;21376;50.954;4.716;2023-12-14T23:34:51;7.00;99.90
35240;DHT22;21376;50.954;4.716;2023-12-14T23:37:51;6.70;99.90
35240;DHT22;21376;50.954;4.716;2023-12-14T23:40:18;6.60;99.90
35240;DHT22;21376;50.954;4.716;2023-12-14T23:46:09;6.80;99.90